【羽田空港本店】人が少しずつ戻ってきているような…

LUXURY FLIGHT

080-7560-1817

羽田空港本店:東京都大田区羽田空港3-3-2
第1旅客ターミナル5階
営業時間:10:00~20:00 定休日:年中無休
電話番号:080-7560-1817

セントレア店:愛知県常滑市セントレア1-1
FLIGHT OF DREAMS FLIGHT PARK
営業時間:10:00~20:00 定休日:年中無休
電話番号:080-4945-5666

lv

【羽田空港本店】人が少しずつ戻ってきているような…

STAFF BLOG

2020/06/05 【羽田空港本店】人が少しずつ戻ってきているような…

おはようございます

 

今朝の羽田METARは…

RJTT 042300Z 18008KT 9999 FEW020 SCT040 BKN/// 25/20 Q1006

NOSIG RMK 1CU020 3SC040 A2972

 

img_6035

 

羽田空港はだいぶ人の出入りが多くなったような気がしています。

一時は本当に誰もいない状況になってしまっていたので…

 

img_5518

 

 

 

まだまだ先が見えない状況でございますが、とにかくコツコツと、今できることを積み重ねて参ります。

 

 

そんな中ではありますが、

当店常連様のお一人、F様が昨日(6/4)より写真展を開催されております。

 

空港では駐機する飛行機が多く、頻繁に飛び上がる姿が見れないのが寂しいのですが、

この写真展では、そんな飛行機たちの雄志が見れそうです。

 

 

img_6034

 

コロナ対策等をしっかりとされた上で、ご興味のある方は是非、ご来場されてみてはいかがでしょうか。

 

少々宣伝が入ってしまいましたが。笑

 

本日も全国的にかなりの暑さが予想されているようです。

皆様もどうかご自愛ください。

 

本日もより良い1日を!!!

 

いつも本当にありがとうございます。

 

「感謝」

 

 

 

 

 

 

TOP